sensor_id;sensor_type;location;lat;lon;timestamp;temperature;humidity
23475;DHT22;11910;52.086;21.066;2023-12-20T00:02:17;6.80;99.90
23475;DHT22;11910;52.086;21.066;2023-12-20T00:04:42;6.80;99.90
23475;DHT22;11910;52.086;21.066;2023-12-20T00:07:08;6.70;99.90
23475;DHT22;11910;52.086;21.066;2023-12-20T00:09:33;6.70;99.90
23475;DHT22;11910;52.086;21.066;2023-12-20T00:11:59;6.70;99.90
23475;DHT22;11910;52.086;21.066;2023-12-20T00:14:25;6.70;99.90
23475;DHT22;11910;52.086;21.066;2023-12-20T00:16:50;6.70;99.90
23475;DHT22;11910;52.086;21.066;2023-12-20T00:19:16;6.70;99.90
23475;DHT22;11910;52.086;21.066;2023-12-20T00:21:41;6.70;99.90
23475;DHT22;11910;52.086;21.066;2023-12-20T00:24:07;6.70;99.90
23475;DHT22;11910;52.086;21.066;2023-12-20T00:26:33;6.70;99.90
23475;DHT22;11910;52.086;21.066;2023-12-20T00:28:59;6.80;99.90
23475;DHT22;11910;52.086;21.066;2023-12-20T00:31:25;6.80;99.90
23475;DHT22;11910;52.086;21.066;2023-12-20T00:33:50;6.70;99.90
23475;DHT22;11910;52.086;21.066;2023-12-20T00:36:16;6.70;99.90
23475;DHT22;11910;52.086;21.066;2023-12-20T00:38:41;6.70;99.90
23475;DHT22;11910;52.086;21.066;2023-12-20T00:41:07;6.70;99.90
23475;DHT22;11910;52.086;21.066;2023-12-20T00:43:33;6.70;99.90
23475;DHT22;11910;52.086;21.066;2023-12-20T00:45:58;6.70;99.90
23475;DHT22;11910;52.086;21.066;2023-12-20T00:48:25;6.70;99.90
23475;DHT22;11910;52.086;21.066;2023-12-20T00:50:52;6.70;99.90
23475;DHT22;11910;52.086;21.066;2023-12-20T00:53:18;6.80;99.90
23475;DHT22;11910;52.086;21.066;2023-12-20T00:55:44;6.80;99.90
23475;DHT22;11910;52.086;21.066;2023-12-20T00:58:10;6.70;99.90
23475;DHT22;11910;52.086;21.066;2023-12-20T01:00:36;6.70;99.90
23475;DHT22;11910;52.086;21.066;2023-12-20T01:03:01;6.70;99.90
23475;DHT22;11910;52.086;21.066;2023-12-20T01:05:27;6.70;99.90
23475;DHT22;11910;52.086;21.066;2023-12-20T01:07:53;6.70;99.90
23475;DHT22;11910;52.086;21.066;2023-12-20T01:10:18;6.70;99.90
23475;DHT22;11910;52.086;21.066;2023-12-20T01:12:44;6.60;99.90
23475;DHT22;11910;52.086;21.066;2023-12-20T01:15:10;6.70;99.90
23475;DHT22;11910;52.086;21.066;2023-12-20T01:17:35;6.70;99.90
23475;DHT22;11910;52.086;21.066;2023-12-20T01:20:01;6.70;99.90
23475;DHT22;11910;52.086;21.066;2023-12-20T01:22:27;6.70;99.90
23475;DHT22;11910;52.086;21.066;2023-12-20T01:24:52;6.70;99.90
23475;DHT22;11910;52.086;21.066;2023-12-20T01:27:18;6.70;99.90
23475;DHT22;11910;52.086;21.066;2023-12-20T01:29:44;6.70;99.90
23475;DHT22;11910;52.086;21.066;2023-12-20T01:32:09;6.70;99.90
23475;DHT22;11910;52.086;21.066;2023-12-20T01:34:35;6.70;99.90
23475;DHT22;11910;52.086;21.066;2023-12-20T01:37:01;6.70;99.90
23475;DHT22;11910;52.086;21.066;2023-12-20T01:39:27;6.70;99.90
23475;DHT22;11910;52.086;21.066;2023-12-20T01:41:53;6.70;99.90
23475;DHT22;11910;52.086;21.066;2023-12-20T01:44:19;6.70;99.90
23475;DHT22;11910;52.086;21.066;2023-12-20T01:46:45;6.70;99.90
23475;DHT22;11910;52.086;21.066;2023-12-20T01:49:11;6.70;99.90
23475;DHT22;11910;52.086;21.066;2023-12-20T01:51:37;6.70;99.90
23475;DHT22;11910;52.086;21.066;2023-12-20T01:54:03;6.70;99.90
23475;DHT22;11910;52.086;21.066;2023-12-20T01:56:31;6.70;99.90
23475;DHT22;11910;52.086;21.066;2023-12-20T01:58:57;6.70;99.90
23475;DHT22;11910;52.086;21.066;2023-12-20T02:01:23;6.70;99.90
23475;DHT22;11910;52.086;21.066;2023-12-20T02:03:50;6.80;99.90
23475;DHT22;11910;52.086;21.066;2023-12-20T02:06:16;6.70;99.90
23475;DHT22;11910;52.086;21.066;2023-12-20T02:08:42;6.70;99.90
23475;DHT22;11910;52.086;21.066;2023-12-20T02:11:07;6.70;99.90
23475;DHT22;11910;52.086;21.066;2023-12-20T02:13:33;6.70;99.90
23475;DHT22;11910;52.086;21.066;2023-12-20T02:15:59;6.70;99.90
23475;DHT22;11910;52.086;21.066;2023-12-20T02:18:25;6.70;99.90
23475;DHT22;11910;52.086;21.066;2023-12-20T02:20:51;6.70;99.90
23475;DHT22;11910;52.086;21.066;2023-12-20T02:23:16;6.70;99.90
23475;DHT22;11910;52.086;21.066;2023-12-20T02:25:42;6.60;99.90
23475;DHT22;11910;52.086;21.066;2023-12-20T02:28:07;6.60;99.90
23475;DHT22;11910;52.086;21.066;2023-12-20T02:30:33;6.60;99.90
23475;DHT22;11910;52.086;21.066;2023-12-20T02:33:04;6.60;99.90
23475;DHT22;11910;52.086;21.066;2023-12-20T02:35:33;6.60;99.90
23475;DHT22;11910;52.086;21.066;2023-12-20T02:37:58;6.60;99.90
23475;DHT22;11910;52.086;21.066;2023-12-20T02:40:24;6.60;99.90
23475;DHT22;11910;52.086;21.066;2023-12-20T02:42:49;6.60;99.90
23475;DHT22;11910;52.086;21.066;2023-12-20T02:45:15;6.60;99.90
23475;DHT22;11910;52.086;21.066;2023-12-20T02:47:40;6.60;99.90
23475;DHT22;11910;52.086;21.066;2023-12-20T02:50:06;6.60;99.90
23475;DHT22;11910;52.086;21.066;2023-12-20T02:52:32;6.60;99.90
23475;DHT22;11910;52.086;21.066;2023-12-20T02:54:57;6.50;99.90
23475;DHT22;11910;52.086;21.066;2023-12-20T02:57:23;6.50;99.90
23475;DHT22;11910;52.086;21.066;2023-12-20T02:59:48;6.50;99.90
23475;DHT22;11910;52.086;21.066;2023-12-20T03:02:14;6.50;99.90
23475;DHT22;11910;52.086;21.066;2023-12-20T03:04:40;6.60;99.90
23475;DHT22;11910;52.086;21.066;2023-12-20T03:07:06;6.60;99.90
23475;DHT22;11910;52.086;21.066;2023-12-20T03:09:31;6.60;99.90
23475;DHT22;11910;52.086;21.066;2023-12-20T03:11:57;6.50;99.90
23475;DHT22;11910;52.086;21.066;2023-12-20T03:14:23;6.60;99.90
23475;DHT22;11910;52.086;21.066;2023-12-20T03:16:51;6.60;99.90
23475;DHT22;11910;52.086;21.066;2023-12-20T03:19:18;6.60;99.90
23475;DHT22;11910;52.086;21.066;2023-12-20T03:21:44;6.60;99.90
23475;DHT22;11910;52.086;21.066;2023-12-20T03:24:10;6.60;99.90
23475;DHT22;11910;52.086;21.066;2023-12-20T03:26:35;6.60;99.90
23475;DHT22;11910;52.086;21.066;2023-12-20T03:29:01;6.60;99.90
23475;DHT22;11910;52.086;21.066;2023-12-20T03:31:27;6.60;99.90
23475;DHT22;11910;52.086;21.066;2023-12-20T03:33:52;6.60;99.90
23475;DHT22;11910;52.086;21.066;2023-12-20T03:36:19;6.60;99.90
23475;DHT22;11910;52.086;21.066;2023-12-20T03:38:45;6.60;99.90
23475;DHT22;11910;52.086;21.066;2023-12-20T03:41:11;6.60;99.90
23475;DHT22;11910;52.086;21.066;2023-12-20T03:43:37;6.60;99.90
23475;DHT22;11910;52.086;21.066;2023-12-20T03:46:03;6.60;99.90
23475;DHT22;11910;52.086;21.066;2023-12-20T03:48:29;6.60;99.90
23475;DHT22;11910;52.086;21.066;2023-12-20T03:50:56;6.60;99.90
23475;DHT22;11910;52.086;21.066;2023-12-20T03:53:22;6.60;99.90
23475;DHT22;11910;52.086;21.066;2023-12-20T03:55:47;6.60;99.90
23475;DHT22;11910;52.086;21.066;2023-12-20T03:58:13;6.60;99.90
23475;DHT22;11910;52.086;21.066;2023-12-20T04:00:39;6.60;99.90
23475;DHT22;11910;52.086;21.066;2023-12-20T04:03:04;6.60;99.90
23475;DHT22;11910;52.086;21.066;2023-12-20T04:05:30;6.60;99.90
23475;DHT22;11910;52.086;21.066;2023-12-20T04:07:55;6.60;99.90
23475;DHT22;11910;52.086;21.066;2023-12-20T04:10:21;6.70;99.90
23475;DHT22;11910;52.086;21.066;2023-12-20T04:12:47;6.60;99.90
23475;DHT22;11910;52.086;21.066;2023-12-20T04:15:15;6.60;99.90
23475;DHT22;11910;52.086;21.066;2023-12-20T04:17:41;6.60;99.90
23475;DHT22;11910;52.086;21.066;2023-12-20T04:20:07;6.60;99.90
23475;DHT22;11910;52.086;21.066;2023-12-20T04:22:32;6.60;99.90
23475;DHT22;11910;52.086;21.066;2023-12-20T04:24:58;6.60;99.90
23475;DHT22;11910;52.086;21.066;2023-12-20T04:27:23;6.60;99.90
23475;DHT22;11910;52.086;21.066;2023-12-20T04:29:49;6.60;99.90
23475;DHT22;11910;52.086;21.066;2023-12-20T04:32:15;6.60;99.90
23475;DHT22;11910;52.086;21.066;2023-12-20T04:34:40;6.70;99.90
23475;DHT22;11910;52.086;21.066;2023-12-20T04:37:06;6.70;99.90
23475;DHT22;11910;52.086;21.066;2023-12-20T04:39:31;6.60;99.90
23475;DHT22;11910;52.086;21.066;2023-12-20T04:41:57;6.60;99.90
23475;DHT22;11910;52.086;21.066;2023-12-20T04:44:22;6.60;99.90
23475;DHT22;11910;52.086;21.066;2023-12-20T04:46:49;6.60;99.90
23475;DHT22;11910;52.086;21.066;2023-12-20T04:49:14;6.60;99.90
23475;DHT22;11910;52.086;21.066;2023-12-20T04:51:40;6.60;99.90
23475;DHT22;11910;52.086;21.066;2023-12-20T04:54:05;6.60;99.90
23475;DHT22;11910;52.086;21.066;2023-12-20T04:56:31;6.60;99.90
23475;DHT22;11910;52.086;21.066;2023-12-20T04:58:59;6.60;99.90
23475;DHT22;11910;52.086;21.066;2023-12-20T05:01:25;6.60;99.90
23475;DHT22;11910;52.086;21.066;2023-12-20T05:03:50;6.60;99.90
23475;DHT22;11910;52.086;21.066;2023-12-20T05:06:16;6.60;99.90
23475;DHT22;11910;52.086;21.066;2023-12-20T05:08:41;6.60;99.90
23475;DHT22;11910;52.086;21.066;2023-12-20T05:11:07;6.60;99.90
23475;DHT22;11910;52.086;21.066;2023-12-20T05:13:33;6.70;99.90
23475;DHT22;11910;52.086;21.066;2023-12-20T05:15:58;6.70;99.90
23475;DHT22;11910;52.086;21.066;2023-12-20T05:18:24;6.70;99.90
23475;DHT22;11910;52.086;21.066;2023-12-20T05:20:50;6.70;99.90
23475;DHT22;11910;52.086;21.066;2023-12-20T05:23:16;6.60;99.90
23475;DHT22;11910;52.086;21.066;2023-12-20T05:25:42;6.60;99.90
23475;DHT22;11910;52.086;21.066;2023-12-20T05:28:08;6.60;99.90
23475;DHT22;11910;52.086;21.066;2023-12-20T05:30:33;6.60;99.90
23475;DHT22;11910;52.086;21.066;2023-12-20T05:32:59;6.60;99.90
23475;DHT22;11910;52.086;21.066;2023-12-20T05:35:25;6.60;99.90
23475;DHT22;11910;52.086;21.066;2023-12-20T05:37:50;6.60;99.90
23475;DHT22;11910;52.086;21.066;2023-12-20T05:40:16;6.60;99.90
23475;DHT22;11910;52.086;21.066;2023-12-20T05:42:41;6.60;99.90
23475;DHT22;11910;52.086;21.066;2023-12-20T05:45:07;6.60;99.90
23475;DHT22;11910;52.086;21.066;2023-12-20T05:47:33;6.60;99.90
23475;DHT22;11910;52.086;21.066;2023-12-20T05:49:58;6.60;99.90
23475;DHT22;11910;52.086;21.066;2023-12-20T05:52:24;6.60;99.90
23475;DHT22;11910;52.086;21.066;2023-12-20T05:54:52;6.60;99.90
23475;DHT22;11910;52.086;21.066;2023-12-20T05:57:18;6.60;99.90
23475;DHT22;11910;52.086;21.066;2023-12-20T05:59:44;6.60;99.90
23475;DHT22;11910;52.086;21.066;2023-12-20T06:02:09;6.60;99.90
23475;DHT22;11910;52.086;21.066;2023-12-20T06:04:35;6.60;99.90
23475;DHT22;11910;52.086;21.066;2023-12-20T06:07:00;6.60;99.90
23475;DHT22;11910;52.086;21.066;2023-12-20T06:09:29;6.60;99.90
23475;DHT22;11910;52.086;21.066;2023-12-20T06:11:55;6.60;99.90
23475;DHT22;11910;52.086;21.066;2023-12-20T06:14:21;6.60;99.90
23475;DHT22;11910;52.086;21.066;2023-12-20T06:16:46;6.60;99.90
23475;DHT22;11910;52.086;21.066;2023-12-20T06:19:12;6.60;99.90
23475;DHT22;11910;52.086;21.066;2023-12-20T06:21:38;6.60;99.90
23475;DHT22;11910;52.086;21.066;2023-12-20T06:24:03;6.60;99.90
23475;DHT22;11910;52.086;21.066;2023-12-20T06:26:29;6.60;99.90
23475;DHT22;11910;52.086;21.066;2023-12-20T06:28:55;6.70;99.90
23475;DHT22;11910;52.086;21.066;2023-12-20T06:31:21;6.60;99.90
23475;DHT22;11910;52.086;21.066;2023-12-20T06:33:46;6.60;99.90
23475;DHT22;11910;52.086;21.066;2023-12-20T06:36:13;6.60;99.90
23475;DHT22;11910;52.086;21.066;2023-12-20T06:38:38;6.60;99.90
23475;DHT22;11910;52.086;21.066;2023-12-20T06:41:04;6.60;99.90
23475;DHT22;11910;52.086;21.066;2023-12-20T06:43:30;6.50;99.90
23475;DHT22;11910;52.086;21.066;2023-12-20T06:45:56;6.50;99.90
23475;DHT22;11910;52.086;21.066;2023-12-20T06:48:22;6.50;99.90
23475;DHT22;11910;52.086;21.066;2023-12-20T06:50:48;6.60;99.90
23475;DHT22;11910;52.086;21.066;2023-12-20T06:53:13;6.50;99.90
23475;DHT22;11910;52.086;21.066;2023-12-20T06:55:39;6.60;99.90
23475;DHT22;11910;52.086;21.066;2023-12-20T06:58:04;6.60;99.90
23475;DHT22;11910;52.086;21.066;2023-12-20T07:00:30;6.60;99.90
23475;DHT22;11910;52.086;21.066;2023-12-20T07:02:56;6.60;99.90
23475;DHT22;11910;52.086;21.066;2023-12-20T07:05:24;6.60;99.90
23475;DHT22;11910;52.086;21.066;2023-12-20T07:07:49;6.60;99.90
23475;DHT22;11910;52.086;21.066;2023-12-20T07:10:15;6.60;99.90
23475;DHT22;11910;52.086;21.066;2023-12-20T07:12:41;6.60;99.90
23475;DHT22;11910;52.086;21.066;2023-12-20T07:15:07;6.60;99.90
23475;DHT22;11910;52.086;21.066;2023-12-20T07:17:33;6.50;99.90
23475;DHT22;11910;52.086;21.066;2023-12-20T07:19:59;6.60;99.90
23475;DHT22;11910;52.086;21.066;2023-12-20T07:22:32;6.50;99.90
23475;DHT22;11910;52.086;21.066;2023-12-20T07:24:58;6.60;99.90
23475;DHT22;11910;52.086;21.066;2023-12-20T07:27:24;6.60;99.90
23475;DHT22;11910;52.086;21.066;2023-12-20T07:29:49;6.60;99.90
23475;DHT22;11910;52.086;21.066;2023-12-20T07:32:15;6.60;99.90
23475;DHT22;11910;52.086;21.066;2023-12-20T07:34:41;6.60;99.90
23475;DHT22;11910;52.086;21.066;2023-12-20T07:37:06;6.70;99.90
23475;DHT22;11910;52.086;21.066;2023-12-20T07:39:32;6.60;99.90
23475;DHT22;11910;52.086;21.066;2023-12-20T07:41:57;6.60;99.90
23475;DHT22;11910;52.086;21.066;2023-12-20T07:44:23;6.60;99.90
23475;DHT22;11910;52.086;21.066;2023-12-20T07:46:48;6.60;99.90
23475;DHT22;11910;52.086;21.066;2023-12-20T07:49:14;6.60;99.90
23475;DHT22;11910;52.086;21.066;2023-12-20T07:51:40;6.70;99.90
23475;DHT22;11910;52.086;21.066;2023-12-20T07:54:05;6.70;99.90
23475;DHT22;11910;52.086;21.066;2023-12-20T07:56:33;6.70;99.90
23475;DHT22;11910;52.086;21.066;2023-12-20T07:58:59;6.70;99.90
23475;DHT22;11910;52.086;21.066;2023-12-20T08:01:24;6.60;99.90
23475;DHT22;11910;52.086;21.066;2023-12-20T08:03:50;6.60;99.90
23475;DHT22;11910;52.086;21.066;2023-12-20T08:06:15;6.70;99.90
23475;DHT22;11910;52.086;21.066;2023-12-20T08:08:42;6.70;99.90
23475;DHT22;11910;52.086;21.066;2023-12-20T08:11:08;6.70;99.90
23475;DHT22;11910;52.086;21.066;2023-12-20T08:13:33;6.80;99.90
23475;DHT22;11910;52.086;21.066;2023-12-20T08:15:59;6.70;99.90
23475;DHT22;11910;52.086;21.066;2023-12-20T08:18:25;6.70;99.90
23475;DHT22;11910;52.086;21.066;2023-12-20T08:20:50;6.80;99.90
23475;DHT22;11910;52.086;21.066;2023-12-20T08:23:18;6.80;99.90
23475;DHT22;11910;52.086;21.066;2023-12-20T08:25:45;6.70;99.90
23475;DHT22;11910;52.086;21.066;2023-12-20T08:28:11;6.60;99.90
23475;DHT22;11910;52.086;21.066;2023-12-20T08:30:37;6.60;99.90
23475;DHT22;11910;52.086;21.066;2023-12-20T08:33:02;6.70;99.90
23475;DHT22;11910;52.086;21.066;2023-12-20T08:35:28;6.70;99.90
23475;DHT22;11910;52.086;21.066;2023-12-20T08:37:54;6.70;99.90
23475;DHT22;11910;52.086;21.066;2023-12-20T08:40:19;6.70;99.90
23475;DHT22;11910;52.086;21.066;2023-12-20T08:42:45;6.70;99.90
23475;DHT22;11910;52.086;21.066;2023-12-20T08:45:20;6.70;99.90
23475;DHT22;11910;52.086;21.066;2023-12-20T08:47:46;6.70;99.90
23475;DHT22;11910;52.086;21.066;2023-12-20T08:50:12;6.60;99.90
23475;DHT22;11910;52.086;21.066;2023-12-20T08:52:37;6.70;99.90
23475;DHT22;11910;52.086;21.066;2023-12-20T08:55:03;6.70;99.90
23475;DHT22;11910;52.086;21.066;2023-12-20T08:57:29;6.70;99.90
23475;DHT22;11910;52.086;21.066;2023-12-20T08:59:57;6.70;99.90
23475;DHT22;11910;52.086;21.066;2023-12-20T09:02:23;6.70;99.90
23475;DHT22;11910;52.086;21.066;2023-12-20T09:04:48;6.70;99.90
23475;DHT22;11910;52.086;21.066;2023-12-20T09:07:26;6.80;99.90
23475;DHT22;11910;52.086;21.066;2023-12-20T09:09:53;6.80;99.90
23475;DHT22;11910;52.086;21.066;2023-12-20T09:12:19;6.90;99.90
23475;DHT22;11910;52.086;21.066;2023-12-20T09:14:49;6.90;99.90
23475;DHT22;11910;52.086;21.066;2023-12-20T09:17:16;6.90;99.90
23475;DHT22;11910;52.086;21.066;2023-12-20T09:19:42;6.80;99.90
23475;DHT22;11910;52.086;21.066;2023-12-20T09:22:11;6.80;99.90
23475;DHT22;11910;52.086;21.066;2023-12-20T09:24:37;6.80;99.90
23475;DHT22;11910;52.086;21.066;2023-12-20T09:27:04;6.80;99.90
23475;DHT22;11910;52.086;21.066;2023-12-20T09:29:31;6.80;99.90
23475;DHT22;11910;52.086;21.066;2023-12-20T09:31:56;6.80;99.90
23475;DHT22;11910;52.086;21.066;2023-12-20T09:34:23;6.70;99.90
23475;DHT22;11910;52.086;21.066;2023-12-20T09:36:48;6.70;99.90
23475;DHT22;11910;52.086;21.066;2023-12-20T09:39:14;6.70;99.90
23475;DHT22;11910;52.086;21.066;2023-12-20T09:41:44;6.70;99.90
23475;DHT22;11910;52.086;21.066;2023-12-20T09:44:15;6.70;99.90
23475;DHT22;11910;52.086;21.066;2023-12-20T09:46:44;6.70;99.90
23475;DHT22;11910;52.086;21.066;2023-12-20T09:49:11;6.70;99.90
23475;DHT22;11910;52.086;21.066;2023-12-20T09:51:38;6.70;99.90
23475;DHT22;11910;52.086;21.066;2023-12-20T09:54:05;6.80;99.90
23475;DHT22;11910;52.086;21.066;2023-12-20T09:56:31;6.70;99.90
23475;DHT22;11910;52.086;21.066;2023-12-20T09:58:56;6.70;99.90
23475;DHT22;11910;52.086;21.066;2023-12-20T10:01:26;6.70;99.90
23475;DHT22;11910;52.086;21.066;2023-12-20T10:03:54;6.70;99.90
23475;DHT22;11910;52.086;21.066;2023-12-20T10:06:21;6.70;99.90
23475;DHT22;11910;52.086;21.066;2023-12-20T10:08:46;6.70;99.90
23475;DHT22;11910;52.086;21.066;2023-12-20T10:11:12;6.70;99.90
23475;DHT22;11910;52.086;21.066;2023-12-20T10:13:42;6.70;99.90
23475;DHT22;11910;52.086;21.066;2023-12-20T10:16:08;6.70;99.90
23475;DHT22;11910;52.086;21.066;2023-12-20T10:18:34;6.70;99.90
23475;DHT22;11910;52.086;21.066;2023-12-20T10:21:00;6.70;99.90
23475;DHT22;11910;52.086;21.066;2023-12-20T10:23:26;6.70;99.90
23475;DHT22;11910;52.086;21.066;2023-12-20T10:25:58;6.80;99.90
23475;DHT22;11910;52.086;21.066;2023-12-20T10:28:24;6.80;99.90
23475;DHT22;11910;52.086;21.066;2023-12-20T10:30:56;6.70;99.90
23475;DHT22;11910;52.086;21.066;2023-12-20T10:33:28;6.80;99.90
23475;DHT22;11910;52.086;21.066;2023-12-20T10:35:55;6.80;99.90
23475;DHT22;11910;52.086;21.066;2023-12-20T10:38:21;6.80;99.90
23475;DHT22;11910;52.086;21.066;2023-12-20T10:40:47;6.80;99.90
23475;DHT22;11910;52.086;21.066;2023-12-20T10:43:15;6.80;99.90
23475;DHT22;11910;52.086;21.066;2023-12-20T10:45:42;6.80;99.90
23475;DHT22;11910;52.086;21.066;2023-12-20T10:48:10;6.80;99.90
23475;DHT22;11910;52.086;21.066;2023-12-20T10:50:37;6.80;99.90
23475;DHT22;11910;52.086;21.066;2023-12-20T10:53:07;6.80;99.90
23475;DHT22;11910;52.086;21.066;2023-12-20T10:55:32;6.80;99.90
23475;DHT22;11910;52.086;21.066;2023-12-20T10:58:08;6.80;99.90
23475;DHT22;11910;52.086;21.066;2023-12-20T11:00:39;6.90;99.90
23475;DHT22;11910;52.086;21.066;2023-12-20T11:03:05;6.90;99.90
23475;DHT22;11910;52.086;21.066;2023-12-20T11:08:12;6.80;99.90
23475;DHT22;11910;52.086;21.066;2023-12-20T11:13:36;6.80;99.90
23475;DHT22;11910;52.086;21.066;2023-12-20T11:16:03;6.80;99.90
23475;DHT22;11910;52.086;21.066;2023-12-20T11:18:32;6.80;99.90
23475;DHT22;11910;52.086;21.066;2023-12-20T11:21:06;6.80;99.90
23475;DHT22;11910;52.086;21.066;2023-12-20T11:23:33;6.80;99.90
23475;DHT22;11910;52.086;21.066;2023-12-20T11:25:59;6.80;99.90
23475;DHT22;11910;52.086;21.066;2023-12-20T11:28:27;6.80;99.90
23475;DHT22;11910;52.086;21.066;2023-12-20T11:30:57;6.80;99.90
23475;DHT22;11910;52.086;21.066;2023-12-20T11:33:36;6.80;99.90
23475;DHT22;11910;52.086;21.066;2023-12-20T11:36:02;6.90;99.90
23475;DHT22;11910;52.086;21.066;2023-12-20T11:38:38;6.90;99.90
23475;DHT22;11910;52.086;21.066;2023-12-20T11:41:06;6.90;99.90
23475;DHT22;11910;52.086;21.066;2023-12-20T11:43:36;6.90;99.90
23475;DHT22;11910;52.086;21.066;2023-12-20T11:46:09;6.90;99.90
23475;DHT22;11910;52.086;21.066;2023-12-20T11:48:37;6.90;99.90
23475;DHT22;11910;52.086;21.066;2023-12-20T11:51:08;6.90;99.90
23475;DHT22;11910;52.086;21.066;2023-12-20T11:53:34;6.90;99.90
23475;DHT22;11910;52.086;21.066;2023-12-20T11:56:00;6.90;99.90
23475;DHT22;11910;52.086;21.066;2023-12-20T11:58:28;6.90;99.90
23475;DHT22;11910;52.086;21.066;2023-12-20T12:00:55;6.90;99.90
23475;DHT22;11910;52.086;21.066;2023-12-20T12:03:21;6.90;99.90
23475;DHT22;11910;52.086;21.066;2023-12-20T12:05:50;6.90;99.90
23475;DHT22;11910;52.086;21.066;2023-12-20T12:08:16;6.90;99.90
23475;DHT22;11910;52.086;21.066;2023-12-20T12:10:43;6.90;99.90
23475;DHT22;11910;52.086;21.066;2023-12-20T12:13:09;6.90;99.90
23475;DHT22;11910;52.086;21.066;2023-12-20T12:15:36;6.90;99.90
23475;DHT22;11910;52.086;21.066;2023-12-20T12:18:02;6.90;99.90
23475;DHT22;11910;52.086;21.066;2023-12-20T12:20:27;6.90;99.90
23475;DHT22;11910;52.086;21.066;2023-12-20T12:23:01;6.90;99.90
23475;DHT22;11910;52.086;21.066;2023-12-20T12:25:26;6.80;99.90
23475;DHT22;11910;52.086;21.066;2023-12-20T12:27:53;6.80;99.90
23475;DHT22;11910;52.086;21.066;2023-12-20T12:30:19;6.80;99.90
23475;DHT22;11910;52.086;21.066;2023-12-20T12:32:45;6.80;99.90
23475;DHT22;11910;52.086;21.066;2023-12-20T12:35:11;6.80;99.90
23475;DHT22;11910;52.086;21.066;2023-12-20T12:37:40;6.80;99.90
23475;DHT22;11910;52.086;21.066;2023-12-20T12:40:16;6.70;99.90
23475;DHT22;11910;52.086;21.066;2023-12-20T12:42:43;6.70;99.90
23475;DHT22;11910;52.086;21.066;2023-12-20T12:45:10;6.70;99.90
23475;DHT22;11910;52.086;21.066;2023-12-20T12:47:37;6.70;99.90
23475;DHT22;11910;52.086;21.066;2023-12-20T12:50:03;6.70;99.90
23475;DHT22;11910;52.086;21.066;2023-12-20T12:52:30;6.60;99.90
23475;DHT22;11910;52.086;21.066;2023-12-20T12:54:56;6.60;99.90
23475;DHT22;11910;52.086;21.066;2023-12-20T12:57:22;6.60;99.90
23475;DHT22;11910;52.086;21.066;2023-12-20T12:59:47;6.60;99.90
23475;DHT22;11910;52.086;21.066;2023-12-20T13:02:13;6.50;99.90
23475;DHT22;11910;52.086;21.066;2023-12-20T13:04:40;6.60;99.90
23475;DHT22;11910;52.086;21.066;2023-12-20T13:07:07;6.50;99.90
23475;DHT22;11910;52.086;21.066;2023-12-20T13:09:35;6.50;99.90
23475;DHT22;11910;52.086;21.066;2023-12-20T13:12:01;6.50;99.90
23475;DHT22;11910;52.086;21.066;2023-12-20T13:14:29;6.40;99.90
23475;DHT22;11910;52.086;21.066;2023-12-20T13:16:55;6.40;99.90
23475;DHT22;11910;52.086;21.066;2023-12-20T13:19:21;6.40;99.90
23475;DHT22;11910;52.086;21.066;2023-12-20T13:21:47;6.40;99.90
23475;DHT22;11910;52.086;21.066;2023-12-20T13:24:12;6.40;99.90
23475;DHT22;11910;52.086;21.066;2023-12-20T13:26:38;6.40;99.90
23475;DHT22;11910;52.086;21.066;2023-12-20T13:29:03;6.40;99.90
23475;DHT22;11910;52.086;21.066;2023-12-20T13:31:29;6.40;99.90
23475;DHT22;11910;52.086;21.066;2023-12-20T13:33:55;6.40;99.90
23475;DHT22;11910;52.086;21.066;2023-12-20T13:36:20;6.40;99.90
23475;DHT22;11910;52.086;21.066;2023-12-20T13:38:46;6.40;99.90
23475;DHT22;11910;52.086;21.066;2023-12-20T13:41:12;6.40;99.90
23475;DHT22;11910;52.086;21.066;2023-12-20T13:43:37;6.40;99.90
23475;DHT22;11910;52.086;21.066;2023-12-20T13:46:03;6.50;99.90
23475;DHT22;11910;52.086;21.066;2023-12-20T13:48:29;6.40;99.90
23475;DHT22;11910;52.086;21.066;2023-12-20T13:50:54;6.50;99.90
23475;DHT22;11910;52.086;21.066;2023-12-20T13:53:22;6.50;99.90
23475;DHT22;11910;52.086;21.066;2023-12-20T13:55:48;6.60;99.90
23475;DHT22;11910;52.086;21.066;2023-12-20T13:58:13;6.60;99.90
23475;DHT22;11910;52.086;21.066;2023-12-20T14:00:40;6.50;99.90
23475;DHT22;11910;52.086;21.066;2023-12-20T14:03:05;6.40;99.90
23475;DHT22;11910;52.086;21.066;2023-12-20T14:05:31;6.40;99.90
23475;DHT22;11910;52.086;21.066;2023-12-20T14:07:57;6.40;99.90
23475;DHT22;11910;52.086;21.066;2023-12-20T14:10:23;6.30;99.90
23475;DHT22;11910;52.086;21.066;2023-12-20T14:12:49;6.30;99.90
23475;DHT22;11910;52.086;21.066;2023-12-20T14:15:14;6.30;99.90
23475;DHT22;11910;52.086;21.066;2023-12-20T14:17:40;6.30;99.90
23475;DHT22;11910;52.086;21.066;2023-12-20T14:20:10;6.30;99.90
23475;DHT22;11910;52.086;21.066;2023-12-20T14:22:38;6.30;99.90
23475;DHT22;11910;52.086;21.066;2023-12-20T14:25:04;6.30;99.90
23475;DHT22;11910;52.086;21.066;2023-12-20T14:27:30;6.30;99.90
23475;DHT22;11910;52.086;21.066;2023-12-20T14:29:55;6.20;99.90
23475;DHT22;11910;52.086;21.066;2023-12-20T14:32:21;6.20;99.90
23475;DHT22;11910;52.086;21.066;2023-12-20T14:34:47;6.20;99.90
23475;DHT22;11910;52.086;21.066;2023-12-20T14:37:13;6.30;99.90
23475;DHT22;11910;52.086;21.066;2023-12-20T14:39:38;6.30;99.90
23475;DHT22;11910;52.086;21.066;2023-12-20T14:42:07;6.30;99.90
23475;DHT22;11910;52.086;21.066;2023-12-20T14:44:36;6.30;99.90
23475;DHT22;11910;52.086;21.066;2023-12-20T14:47:02;6.30;99.90
23475;DHT22;11910;52.086;21.066;2023-12-20T14:49:27;6.30;99.90
23475;DHT22;11910;52.086;21.066;2023-12-20T14:51:53;6.30;99.90
23475;DHT22;11910;52.086;21.066;2023-12-20T14:54:19;6.20;99.90
23475;DHT22;11910;52.086;21.066;2023-12-20T14:56:46;6.20;99.90
23475;DHT22;11910;52.086;21.066;2023-12-20T14:59:12;6.20;99.90
23475;DHT22;11910;52.086;21.066;2023-12-20T15:01:40;6.20;99.90
23475;DHT22;11910;52.086;21.066;2023-12-20T15:04:09;6.20;99.90
23475;DHT22;11910;52.086;21.066;2023-12-20T15:06:35;6.10;99.90
23475;DHT22;11910;52.086;21.066;2023-12-20T15:09:02;6.10;99.90
23475;DHT22;11910;52.086;21.066;2023-12-20T15:11:31;6.10;99.90
23475;DHT22;11910;52.086;21.066;2023-12-20T15:13:56;6.10;99.90
23475;DHT22;11910;52.086;21.066;2023-12-20T15:16:23;6.10;99.90
23475;DHT22;11910;52.086;21.066;2023-12-20T15:18:49;6.00;99.90
23475;DHT22;11910;52.086;21.066;2023-12-20T15:21:18;6.00;99.90
23475;DHT22;11910;52.086;21.066;2023-12-20T15:23:44;6.00;99.90
23475;DHT22;11910;52.086;21.066;2023-12-20T15:26:21;6.00;99.90
23475;DHT22;11910;52.086;21.066;2023-12-20T15:28:47;6.00;99.90
23475;DHT22;11910;52.086;21.066;2023-12-20T15:31:13;6.00;99.90